x

Boston 16 Nm East Of Boston, Ma (44013) Wave Buoy

5:50pm - Fri 30th Jan 2015 All times are EST. -5 hours from GMT.

  • Sig Wave height 3.0ft
  • Swell Direction
  • Peak Period 11s
  • Average Period 4s
  • Wind
    22mph, 25mph gusts
  • Sea Temp 41°f
  • 空気 Temp 33°f
  • Sea Pressure 1005.8mb
  • Boston 16 Nm East Of Boston, Ma
  • Boston 16 Nm East Of Boston, Ma

More Historic Weather Station data

Upgrade to MSW Pro to gain access to the past 30 days of data for over 8000 Wavebouys and Weather Stations around the globe.

Join Pro

Comparision Forecast

View Surf forecast
   
Fri 01/30 5:50pm 3ft 11s 4s 22 25 mph 1005.8mb 41f 33f
4:50pm 2.5ft 10s 4s 20 22 mph 1005.7mb 41f 33f
3:50pm 2.5ft 9s 4s 18 22 mph 1005.4mb 41f 33f
2:50pm 2.5ft 9s 5s 13 16 mph 1006mb 41f 33f
1:50pm 2.5ft 10s 5s 11 13 mph 1006.1mb 41f 34f
12:50pm 2.5ft 10s 5s 11 13 mph 1006.7mb 41f 33f
11:50am 2.5ft 10s 5s 9 11 mph 1007.8mb 41f 33f
10:50am 2.5ft 10s 5s 9 11 mph 1008.7mb 41f 34f
9:50am 2.5ft 10s 5s 11 13 mph 1009.2mb 41f 35f
8:50am 3ft 4s 4s 13 16 mph 1009.5mb 40f 35f
7:50am 3ft 4s 4s 18 20 mph 1010mb 40f 37f
6:50am 3.5ft 4s 4s 20 25 mph 1010.6mb 40f 36f
5:50am 3ft 4s 4s 20 25 mph 1011.3mb 40f 35f
4:50am 3ft 11s 4s 20 22 mph 1012.2mb 40f 35f
3:50am 2.5ft 11s 4s 18 20 mph 1013.3mb 40f 34f
2:50am 2.5ft 9s 5s 16 20 mph 1014.7mb 40f 33f
1:50am 2.5ft 10s 5s 13 16 mph 1016mb 40f 32f
12:50am 2.5ft 10s 5s 13 16 mph 1017.5mb 40f 31f
Thu 01/29 11:50pm 2.5ft 10s 5s 13 16 mph 1018.5mb 40f 32f
10:50pm 2.5ft 10s 5s 13 16 mph 1019.4mb 40f 31f
9:50pm 2ft 6s 5s 11 13 mph 1019.2mb 40f 32f
8:50pm 2.5ft 10s 5s 11 13 mph 1020mb 40f 31f
7:50pm 2.5ft 11s 6s 11 13 mph 1020.7mb 40f 33f
6:50pm 2.5ft 7s 5s 9 13 mph 1021.2mb 40f 33f
5:50pm 2.5ft 7s 5s 4 7 mph 1021.7mb 40f 32f
4:50pm 3ft 10s  -  2 9 mph 1022mb 40f 31f
3:50pm 3ft 10s 6s 2 4 mph 1022.5mb 41f 34f
2:50pm 3ft 10s 5s 4 7 mph 1023.2mb 41f 33f
1:50pm 3ft 6s 5s 4 9 mph 1023.9mb 41f 32f
12:50pm 3ft 9s 5s 7 9 mph 1024.3mb 40f 31f
11:50am 3.5ft 11s 5s 7 11 mph 1025.5mb 40f 30f
10:50am 3.5ft 11s 6s 9 11 mph 1026.3mb 40f 28f
9:50am 4ft 11s 6s 9 11 mph 1026.6mb 40f 27f
8:50am 4ft 11s 6s 11 13 mph 1026.4mb 40f 27f
7:50am 3.5ft 8s 5s 11 13 mph 1026mb 40f 27f
6:50am 4ft 11s 5s 11 13 mph 1025.3mb 40f 26f
5:50am 4ft 11s 5s 11 13 mph 1025.2mb 40f 24f
4:50am 4.5ft 7s 5s 9 11 mph 1025.1mb 40f 25f
3:50am 4.5ft 7s 5s 11 13 mph 1025mb 40f 24f
2:50am 5ft 7s 5s 16 20 mph 1024.9mb 40f 25f
1:50am 5ft 8s 5s 20 22 mph 1024.3mb 40f 24f
12:50am 5.5ft 7s 6s 16 20 mph 1023.6mb 40f 24f
Wed 01/28 11:50pm 6ft 11s 6s 18 22 mph 1023.1mb 40f 24f
10:50pm 5.5ft 11s 5s 18 22 mph 1022.8mb 40f 24f
9:50pm 6ft 11s 6s 22 27 mph 1021.7mb 40f 25f
8:50pm 6ft 8s 6s 20 25 mph 1021.1mb 40f 25f
7:50pm 6ft 8s 6s 20 25 mph 1020.2mb 40f 26f
6:50pm 6.5ft 8s 6s 22 25 mph 1019.3mb 40f 26f
5:50pm 7ft 10s 6s 20 25 mph 1018.1mb 40f 26f
4:50pm 7ft 8s 6s 18 25 mph 1016.9mb 40f 26f
3:50pm 7ft 9s 6s 20 25 mph 1016mb 40f 25f
2:50pm 7.5ft 10s 7s 20 27 mph 1015.1mb 40f 24f
1:50pm 9.5ft 10s 7s 18 25 mph 1014.6mb 40f 22f
12:50pm 8ft 10s 7s 16 20 mph 1014.2mb 40f 21f
11:50am 10ft 11s 7s 18 25 mph 1014.1mb 40f 21f
10:50am 10ft 11s 7s 22 29 mph 1014mb 40f 20f
9:50am 11.5ft 10s 7s 22 29 mph 1013.1mb 40f 19f
8:50am 12ft 11s 8s 25 29 mph 1012.1mb 40f 19f
7:50am 11ft 11s 7s 25 34 mph 1010.9mb 40f 18f
6:50am 12ft 11s 8s 22 29 mph 1009.6mb 41f 18f
5:50am  -   -   -  25 29 mph 1008.3mb 41f 18f
4:50am 15.5ft 11s 8s 27 31 mph 1006.8mb 41f 19f
3:50am 14ft 11s 8s 25 34 mph 1006.1mb 41f 18f
2:50am  -   -   -  27 34 mph 1005.3mb 41f 18f
1:50am 16ft 12s 8s 29 36 mph 1004.2mb 41f 18f
12:50am 17.5ft 13s 9s 29 36 mph 1003.3mb 40f 18f
Tue 01/27 11:50pm 17ft 13s 8s 31 38 mph 1002.8mb 40f 18f
10:50pm 17.5ft 13s 9s 29 38 mph 1002.1mb 40f 19f
9:50pm 19.5ft 14s 9s 29 38 mph 1001.2mb 41f 20f
8:50pm 22.5ft 14s 9s 36 47 mph 997.8mb 41f 21f
7:50pm 23.5ft 13s 10s 36 45 mph 997.7mb 41f 22f
6:50pm  -   -   -  40 49 mph 997.4mb 41f -
5:50pm 24ft 13s 9s 43 54 mph 996.8mb 41f 22f
4:50pm 24ft 14s 10s 43 51 mph 996.1mb 41f 21f
3:50pm 26ft 14s 10s 40 47 mph 995.4mb 41f 21f
2:50pm 24ft 14s 9s 40 49 mph 995mb 41f 22f
1:50pm 26.5ft 14s 10s 47 56 mph 994mb 41f 24f
12:50pm 26ft 14s 10s 47 58 mph 993.9mb 40f 26f
11:50am 27ft 14s 9s 47 60 mph 994mb 40f 26f
10:50am 25.5ft 12s 9s 45 54 mph 995.8mb 40f 26f
9:50am 24ft 11s 9s 47 60 mph 996.5mb 40f 25f
8:50am 22.5ft 12s 9s 45 56 mph 997.1mb 41f 24f
7:50am 24ft 11s 9s 45 58 mph 997.7mb 41f 24f
6:50am 22ft 11s 8s 47 56 mph 997.9mb 41f 23f
5:50am 22.5ft 11s 9s 47 60 mph 997.7mb 41f 24f
4:50am 22.5ft 11s 8s 47 65 mph 997.4mb 41f 25f
3:50am 19ft 11s 8s 47 58 mph 999.2mb 41f 27f
2:50am 19.5ft 10s 8s 47 56 mph 1001.2mb 41f 28f
1:50am 19.5ft 8s 8s 45 60 mph 1002.6mb 41f 29f
12:50am 15.5ft 9s 7s 47 56 mph 1004.3mb 41f 29f